Time;durP1;ratioP1;P1;durP2;ratioP2;P2;SDS_P1;SDS_P2;PMS_P1;PMS_P2;Temp;Humidity;BMP_temperature;BMP_pressure;BME280_temperature;BME280_humidity;BME280_pressure;Samples;Min_cycle;Max_cycle;Signal;HPM_P1;HPM_P2
2022/06/03 00:00:41;;;;;;;8.27;2.10;;;;;;;;;;5001497;28;20060;-68
2022/06/03 00:03:12;;;;;;;1.85;1.50;;;;;;;;;;5045828;28;20494;-68
2022/06/03 00:05:43;;;;;;;3.75;1.58;;;;;;;;;;5047332;28;20442;-67
2022/06/03 00:08:13;;;;;;;3.05;1.60;;;;;;;;;;5050809;28;20049;-68
2022/06/03 00:10:56;;;;;;;2.08;1.42;;;;;;;;;;5051251;28;20029;-67
2022/06/03 00:13:37;;;;;;;2.15;1.60;;;;;;;;;;5045119;28;20033;-68
2022/06/03 00:16:02;;;;;;;;;;;;;;;;;;5045982;28;20102;-68
2022/06/03 00:18:56;;;;;;;2.13;1.80;;;;;;;;;;5048565;28;19916;-67
2022/06/03 00:21:37;;;;;;;4.43;1.65;;;;;;;;;;5032897;28;20120;-68
2022/06/03 00:24:29;;;;;;;3.38;1.30;;;;;;;;;;5049454;28;20048;-68
2022/06/03 00:26:54;;;;;;;4.97;2.08;;;;;;;;;;5044561;28;20671;-68
2022/06/03 00:29:37;;;;;;;1.53;1.43;;;;;;;;;;5060556;23;20055;-68
2022/06/03 00:32:03;;;;;;;2.80;1.70;;;;;;;;;;5066260;28;20626;-68
2022/06/03 00:34:36;;;;;;;2.90;2.00;;;;;;;;;;5069033;28;20029;-67
2022/06/03 00:37:17;;;;;;;2.80;1.48;;;;;;;;;;5065819;28;20483;-68
2022/06/03 00:39:42;;;;;;;3.28;1.50;;;;;;;;;;5065285;28;20051;-68
2022/06/03 00:42:27;;;;;;;2.27;1.53;;;;;;;;;;5067212;28;20033;-68
2022/06/03 00:45:08;;;;;;;3.22;1.40;;;;;;;;;;5065321;28;20287;-68
2022/06/03 00:47:57;;;;;;;1.85;1.63;;;;;;;;;;5066569;28;20473;-68
2022/06/03 00:50:40;;;;;;;2.78;1.65;;;;;;;;;;5066419;28;20027;-67
2022/06/03 00:53:08;;;;;;;3.22;2.13;;;;;;;;;;5064729;28;20446;-68
2022/06/03 00:55:52;;;;;;;4.65;1.88;;;;;;;;;;5069370;28;20020;-67
2022/06/03 00:58:23;;;;;;;4.50;2.33;;;;;;;;;;5067608;28;20020;-67
2022/06/03 01:00:55;;;;;;;3.47;2.38;;;;;;;;;;5063907;28;20124;-67
2022/06/03 01:03:23;;;;;;;3.58;2.05;;;;;;;;;;5065228;28;20013;-67
2022/06/03 01:06:06;;;;;;;6.55;2.42;;;;;;;;;;5068609;28;20040;-67
2022/06/03 01:08:42;;;;;;;2.80;2.50;;;;;;;;;;5068379;28;20023;-67
2022/06/03 01:11:19;;;;;;;3.22;2.30;;;;;;;;;;5067994;28;20025;-67
2022/06/03 01:13:47;;;;;;;3.05;2.15;;;;;;;;;;5067996;28;20052;-67
2022/06/03 01:16:31;;;;;;;5.65;2.20;;;;;;;;;;5068496;28;20024;-67
2022/06/03 01:19:05;;;;;;;4.85;2.90;;;;;;;;;;5063653;28;20020;-67
2022/06/03 01:21:30;;;;;;;8.77;2.60;;;;;;;;;;5067168;28;20024;-66
2022/06/03 01:23:56;;;;;;;3.67;2.25;;;;;;;;;;5067870;28;20027;-68
2022/06/03 01:26:21;;;;;;;5.30;1.75;;;;;;;;;;5068452;28;20027;-69
2022/06/03 01:29:00;;;;;;;4.20;2.03;;;;;;;;;;5066546;28;20021;-67
2022/06/03 01:31:37;;;;;;;3.72;2.33;;;;;;;;;;5067751;28;20029;-69
2022/06/03 01:34:09;;;;;;;3.45;1.85;;;;;;;;;;5066743;28;20103;-67
2022/06/03 01:36:53;;;;;;;5.55;2.08;;;;;;;;;;5067858;28;20031;-67
2022/06/03 01:39:36;;;;;;;2.30;1.88;;;;;;;;;;5068675;28;20024;-67
2022/06/03 01:42:19;;;;;;;3.22;2.20;;;;;;;;;;5066252;28;20209;-67
2022/06/03 01:45:03;;;;;;;4.20;2.00;;;;;;;;;;5063208;28;20032;-67
2022/06/03 01:47:43;;;;;;;7.00;2.05;;;;;;;;;;5065493;28;20024;-67
2022/06/03 01:50:34;;;;;;;2.53;1.98;;;;;;;;;;5065934;28;20453;-69
2022/06/03 01:53:23;;;;;;;5.90;2.72;;;;;;;;;;5064293;28;20127;-66
2022/06/03 01:55:57;;;;;;;3.85;2.00;;;;;;;;;;5068666;28;20024;-66
2022/06/03 01:58:31;;;;;;;3.40;2.22;;;;;;;;;;5067806;28;20032;-67
2022/06/03 02:00:59;;;;;;;3.47;2.10;;;;;;;;;;5064533;28;20063;-66
2022/06/03 02:03:37;;;;;;;2.58;2.20;;;;;;;;;;5067067;28;20017;-67
2022/06/03 02:06:19;;;;;;;3.45;2.08;;;;;;;;;;5067009;28;20419;-67
2022/06/03 02:09:02;;;;;;;2.63;2.03;;;;;;;;;;5068421;28;20023;-67
2022/06/03 02:11:48;;;;;;;3.72;1.90;;;;;;;;;;5066866;28;20059;-67
2022/06/03 02:14:32;;;;;;;2.67;1.83;;;;;;;;;;5067299;28;20159;-67
2022/06/03 02:17:06;;;;;;;3.33;2.13;;;;;;;;;;5069294;28;20028;-67
2022/06/03 02:19:40;;;;;;;2.95;2.33;;;;;;;;;;5070066;28;20021;-67
2022/06/03 02:22:24;;;;;;;5.43;2.42;;;;;;;;;;5070450;28;20020;-67
2022/06/03 02:25:08;;;;;;;4.63;2.17;;;;;;;;;;5052343;28;20024;-67
2022/06/03 02:27:43;;;;;;;4.13;2.70;;;;;;;;;;5072357;28;20016;-67
2022/06/03 02:30:27;;;;;;;4.15;2.45;;;;;;;;;;5071284;28;20021;-67
2022/06/03 02:33:11;;;;;;;3.80;2.60;;;;;;;;;;5070855;28;20074;-67
2022/06/03 02:35:44;;;;;;;4.70;2.10;;;;;;;;;;5072403;28;20447;-67
2022/06/03 02:38:12;;;;;;;2.88;2.40;;;;;;;;;;5072393;28;20078;-67
2022/06/03 02:40:43;;;;;;;3.60;2.40;;;;;;;;;;5072511;28;20020;-67
2022/06/03 02:43:14;;;;;;;7.32;3.10;;;;;;;;;;5067974;28;20027;-67
2022/06/03 02:45:56;;;;;;;3.15;2.13;;;;;;;;;;5071737;28;20017;-67
2022/06/03 02:48:48;;;;;;;4.05;2.47;;;;;;;;;;5072654;28;20025;-67
2022/06/03 02:51:25;;;;;;;5.35;2.78;;;;;;;;;;5068589;28;20055;-67
2022/06/03 02:54:02;;;;;;;2.83;2.47;;;;;;;;;;5070830;28;20017;-67
2022/06/03 02:56:28;;;;;;;5.38;3.13;;;;;;;;;;5068609;28;20025;-67
2022/06/03 02:59:12;;;;;;;3.80;2.10;;;;;;;;;;5072757;28;20020;-67
2022/06/03 03:01:55;;;;;;;4.55;2.80;;;;;;;;;;5069336;28;20024;-67
2022/06/03 03:04:21;;;;;;;7.43;2.88;;;;;;;;;;5069811;28;20040;-67
2022/06/03 03:07:01;;;;;;;3.30;2.70;;;;;;;;;;5070957;28;20044;-67
2022/06/03 03:09:27;;;;;;;;;;;;;;;;;;5068751;28;20484;-67
2022/06/03 03:12:21;;;;;;;6.07;2.53;;;;;;;;;;5072584;28;19909;-67
2022/06/03 03:14:46;;;;;;;5.03;2.67;;;;;;;;;;5069567;28;20663;-67
2022/06/03 03:17:30;;;;;;;6.45;2.40;;;;;;;;;;5050273;28;20035;-67
2022/06/03 03:20:15;;;;;;;4.78;2.63;;;;;;;;;;5055466;28;20086;-67
2022/06/03 03:22:49;;;;;;;4.50;2.63;;;;;;;;;;5070525;28;20380;-66
2022/06/03 03:25:17;;;;;;;10.00;2.75;;;;;;;;;;5070826;28;20108;-67
2022/06/03 03:27:55;;;;;;;3.78;2.85;;;;;;;;;;5072266;28;20021;-67
2022/06/03 03:30:36;;;;;;;7.93;2.72;;;;;;;;;;5066140;28;20031;-68
2022/06/03 03:33:20;;;;;;;4.88;2.75;;;;;;;;;;5068938;28;20115;-68
2022/06/03 03:35:45;;;;;;;3.92;2.97;;;;;;;;;;5069944;28;20016;-67
2022/06/03 03:38:10;;;;;;;3.90;2.70;;;;;;;;;;5070326;28;20370;-67
2022/06/03 03:40:44;;;;;;;5.63;2.60;;;;;;;;;;5071380;28;20066;-66
2022/06/03 03:43:09;;;;;;;4.78;3.00;;;;;;;;;;5049199;28;20302;-67
2022/06/03 03:45:47;;;;;;;5.68;3.00;;;;;;;;;;5070547;28;20020;-67
2022/06/03 03:48:40;;;;;;;3.08;2.30;;;;;;;;;;5070644;28;20647;-69
2022/06/03 03:51:26;;;;;;;6.60;2.40;;;;;;;;;;5064178;28;20035;-67
2022/06/03 03:53:57;;;;;;;4.97;2.65;;;;;;;;;;5070537;28;20020;-67
2022/06/03 03:56:35;;;;;;;4.45;2.67;;;;;;;;;;5071403;28;20107;-68
2022/06/03 03:59:19;;;;;;;4.45;2.60;;;;;;;;;;5069558;28;20043;-66
2022/06/03 04:01:53;;;;;;;9.65;2.88;;;;;;;;;;5068405;28;20025;-67
2022/06/03 04:04:36;;;;;;;3.63;2.42;;;;;;;;;;5064464;28;20016;-67
2022/06/03 04:07:27;;;;;;;3.97;2.70;;;;;;;;;;5069551;28;20484;-67
2022/06/03 04:10:14;;;;;;;5.25;3.25;;;;;;;;;;5069280;28;20013;-67
2022/06/03 04:12:57;;;;;;;10.20;3.03;;;;;;;;;;5066037;28;20081;-67
2022/06/03 04:15:35;;;;;;;4.53;2.58;;;;;;;;;;5071055;28;20020;-68
2022/06/03 04:18:09;;;;;;;3.65;2.53;;;;;;;;;;5066750;28;20025;-66
2022/06/03 04:20:43;;;;;;;4.38;2.97;;;;;;;;;;5066934;28;20444;-67
2022/06/03 04:23:14;;;;;;;4.20;2.75;;;;;;;;;;5065898;28;20430;-68
2022/06/03 04:25:54;;;;;;;7.63;3.47;;;;;;;;;;5065683;28;20484;-67
2022/06/03 04:28:35;;;;;;;8.57;3.45;;;;;;;;;;5067674;28;20044;-67
2022/06/03 04:31:18;;;;;;;6.53;2.95;;;;;;;;;;5066198;28;20044;-67
2022/06/03 04:33:54;;;;;;;6.78;3.30;;;;;;;;;;5068186;28;20020;-68
2022/06/03 04:36:20;;;;;;;3.63;2.60;;;;;;;;;;5064139;28;20025;-68
2022/06/03 04:39:04;;;;;;;5.05;3.13;;;;;;;;;;5065252;28;20024;-67
2022/06/03 04:41:46;;;;;;;4.35;3.00;;;;;;;;;;5066075;28;20028;-66
2022/06/03 04:44:11;;;;;;;4.50;3.30;;;;;;;;;;5060144;28;20101;-67
2022/06/03 04:46:55;;;;;;;9.88;3.38;;;;;;;;;;5066868;28;20729;-68
2022/06/03 04:49:23;;;;;;;4.45;3.25;;;;;;;;;;5064582;28;20113;-68
2022/06/03 04:52:00;;;;;;;6.68;3.70;;;;;;;;;;5065341;28;20020;-68
2022/06/03 04:54:36;;;;;;;7.60;3.35;;;;;;;;;;5066996;28;20107;-67
2022/06/03 04:57:02;;;;;;;6.63;3.33;;;;;;;;;;5066643;28;20113;-67
2022/06/03 04:59:46;;;;;;;11.25;3.35;;;;;;;;;;5064720;28;20062;-67
2022/06/03 05:02:17;;;;;;;6.45;3.67;;;;;;;;;;5062883;28;20033;-67
2022/06/03 05:04:51;;;;;;;5.63;3.40;;;;;;;;;;5064834;28;20008;-67
2022/06/03 05:07:19;;;;;;;5.93;3.28;;;;;;;;;;5066770;28;20020;-67
2022/06/03 05:09:58;;;;;;;5.88;3.33;;;;;;;;;;5065456;28;20044;-66
2022/06/03 05:12:23;;;;;;;8.88;3.72;;;;;;;;;;5066578;28;20034;-67
2022/06/03 05:14:48;;;;;;;7.63;3.53;;;;;;;;;;5065011;28;20032;-67
2022/06/03 05:17:37;;;;;;;3.72;2.72;;;;;;;;;;5067830;28;20424;-67
2022/06/03 05:20:05;;;;;;;10.45;3.25;;;;;;;;;;5066758;28;20025;-67
2022/06/03 05:22:49;;;;;;;9.35;2.88;;;;;;;;;;5063024;28;20103;-67
2022/06/03 05:25:23;;;;;;;13.98;3.65;;;;;;;;;;5062418;28;20048;-67
2022/06/03 05:27:57;;;;;;;6.00;3.33;;;;;;;;;;5062171;28;20040;-67
2022/06/03 05:30:26;;;;;;;8.13;2.70;;;;;;;;;;5058237;28;20103;-67
2022/06/03 05:33:11;;;;;;;10.07;2.75;;;;;;;;;;5067159;28;20469;-66
2022/06/03 05:35:50;;;;;;;5.13;2.47;;;;;;;;;;5060516;28;20028;-67
2022/06/03 05:38:15;;;;;;;8.55;2.65;;;;;;;;;;5066262;28;20437;-67
2022/06/03 05:40:48;;;;;;;3.92;2.45;;;;;;;;;;5065523;28;20111;-67
2022/06/03 05:43:20;;;;;;;4.03;1.85;;;;;;;;;;5065221;28;20123;-67
2022/06/03 05:46:06;;;;;;;6.38;2.13;;;;;;;;;;5066457;28;20092;-67
2022/06/03 05:48:34;;;;;;;4.38;1.48;;;;;;;;;;5063864;28;20016;-66
2022/06/03 05:51:11;;;;;;;2.38;1.55;;;;;;;;;;5066795;28;20033;-66
2022/06/03 05:54:00;;;;;;;1.92;1.30;;;;;;;;;;5064850;28;20048;-67
2022/06/03 05:56:33;;;;;;;5.30;1.70;;;;;;;;;;5054635;28;20040;-67
2022/06/03 05:59:18;;;;;;;3.58;1.38;;;;;;;;;;5061081;28;20024;-67
2022/06/03 06:01:52;;;;;;;5.90;1.67;;;;;;;;;;5053830;28;20121;-67
2022/06/03 06:04:18;;;;;;;2.33;1.48;;;;;;;;;;5065656;28;20143;-67
2022/06/03 06:06:59;;;;;;;4.60;1.17;;;;;;;;;;5056216;28;20097;-68
2022/06/03 06:09:44;;;;;;;7.32;1.45;;;;;;;;;;5067771;28;21153;-67
2022/06/03 06:12:20;;;;;;;2.10;1.20;;;;;;;;;;5069295;28;20666;-67
2022/06/03 06:14:57;;;;;;;1.92;1.60;;;;;;;;;;5068793;28;20016;-67
2022/06/03 06:17:37;;;;;;;3.78;1.75;;;;;;;;;;5064061;28;20020;-67
2022/06/03 06:20:25;;;;;;;3.78;1.60;;;;;;;;;;5062267;28;20074;-67
2022/06/03 06:22:52;;;;;;;3.15;1.30;;;;;;;;;;5068123;28;20036;-67
2022/06/03 06:25:23;;;;;;;1.55;1.13;;;;;;;;;;5067870;28;20021;-66
2022/06/03 06:27:55;;;;;;;8.45;1.63;;;;;;;;;;5069312;28;20092;-67
2022/06/03 06:30:56;;;;;;;2.53;1.50;;;;;;;;;;5061371;28;20115;-67
2022/06/03 06:33:36;;;;;;;2.50;1.42;;;;;;;;;;5022557;28;20044;-67
2022/06/03 06:36:18;;;;;;;1.60;1.10;;;;;;;;;;5059474;28;20392;-68
2022/06/03 06:38:54;;;;;;;3.00;1.20;;;;;;;;;;5065961;28;20042;-67
2022/06/03 06:41:22;;;;;;;2.35;1.08;;;;;;;;;;5061034;28;20048;-68
2022/06/03 06:43:54;;;;;;;1.40;0.90;;;;;;;;;;5063358;28;20074;-67
2022/06/03 06:46:38;;;;;;;1.70;0.85;;;;;;;;;;5067464;28;20023;-67
2022/06/03 06:49:06;;;;;;;3.58;0.95;;;;;;;;;;5065993;28;20082;-67
2022/06/03 06:51:54;;;;;;;2.10;1.10;;;;;;;;;;5068674;28;20094;-68
2022/06/03 06:54:30;;;;;;;2.92;0.93;;;;;;;;;;5061788;28;20508;-67
2022/06/03 06:57:03;;;;;;;1.42;0.98;;;;;;;;;;5058508;28;20008;-67
2022/06/03 06:59:28;;;;;;;1.80;1.00;;;;;;;;;;5066719;28;20013;-67
2022/06/03 07:02:06;;;;;;;2.92;0.93;;;;;;;;;;5066362;28;20032;-67
2022/06/03 07:04:35;;;;;;;3.60;0.98;;;;;;;;;;5066091;28;20287;-67
2022/06/03 07:07:03;;;;;;;1.40;0.82;;;;;;;;;;5067316;28;20032;-67
2022/06/03 07:09:38;;;;;;;2.25;1.20;;;;;;;;;;5068459;28;20024;-67
2022/06/03 07:12:12;;;;;;;1.88;1.13;;;;;;;;;;5070097;28;20427;-67
2022/06/03 07:14:53;;;;;;;1.92;1.20;;;;;;;;;;5069918;28;20029;-67
2022/06/03 07:20:20;;;;;;;3.22;1.58;;;;;;;;;;5069645;28;20040;-68
2022/06/03 07:23:08;;;;;;;3.67;1.20;;;;;;;;;;5071468;28;20024;-67
2022/06/03 07:25:36;;;;;;;3.60;1.40;;;;;;;;;;5066162;28;20099;-67
2022/06/03 07:28:07;;;;;;;3.97;1.05;;;;;;;;;;5065581;28;20052;-68
2022/06/03 07:30:52;;;;;;;1.58;1.00;;;;;;;;;;5069180;28;20024;-67
2022/06/03 07:33:35;;;;;;;2.72;1.17;;;;;;;;;;5069095;28;20043;-68
2022/06/03 07:36:08;;;;;;;3.40;1.20;;;;;;;;;;5064887;28;20028;-68
2022/06/03 07:38:37;;;;;;;2.97;1.05;;;;;;;;;;5066593;28;20055;-68
2022/06/03 07:41:03;;;;;;;1.67;0.90;;;;;;;;;;5066285;28;20059;-68
2022/06/03 07:43:35;;;;;;;2.05;1.20;;;;;;;;;;5066634;28;20024;-68
2022/06/03 07:46:23;;;;;;;2.80;1.15;;;;;;;;;;5069497;28;20024;-68
2022/06/03 07:48:49;;;;;;;2.33;1.17;;;;;;;;;;5036624;28;20155;-69
2022/06/03 07:51:20;;;;;;;9.00;1.05;;;;;;;;;;5067362;28;20107;-68
2022/06/03 07:53:45;;;;;;;16.88;1.60;;;;;;;;;;5066709;28;20025;-68
2022/06/03 07:56:11;;;;;;;2.05;1.10;;;;;;;;;;5068406;28;20028;-67
2022/06/03 07:58:37;;;;;;;2.20;1.10;;;;;;;;;;5068735;28;20028;-67
2022/06/03 08:01:03;;;;;;;4.55;1.00;;;;;;;;;;5065733;28;20375;-67
2022/06/03 08:03:33;;;;;;;6.70;1.00;;;;;;;;;;5067520;28;20024;-68
2022/06/03 08:06:00;;;;;;;5.05;0.82;;;;;;;;;;5070389;28;20428;-68
2022/06/03 08:11:30;;;;;;;1.08;0.90;;;;;;;;;;5067733;28;20419;-67
2022/06/03 08:13:56;;;;;;;5.43;0.88;;;;;;;;;;5065985;28;20102;-69
2022/06/03 08:16:25;;;;;;;2.88;1.10;;;;;;;;;;5067621;28;20017;-67
2022/06/03 08:18:51;;;;;;;0.77;0.75;;;;;;;;;;5069009;28;20028;-67
2022/06/03 08:21:20;;;;;;;9.88;1.00;;;;;;;;;;5068663;28;20035;-67
2022/06/03 08:23:45;;;;;;;2.33;0.80;;;;;;;;;;5068894;28;20032;-67
2022/06/03 08:26:13;;;;;;;2.67;0.90;;;;;;;;;;5068975;28;20384;-67
2022/06/03 08:28:39;;;;;;;1.38;0.75;;;;;;;;;;5068632;28;20016;-67
2022/06/03 08:31:05;;;;;;;6.53;1.27;;;;;;;;;;5068164;28;20025;-67
2022/06/03 08:33:33;;;;;;;3.28;0.80;;;;;;;;;;5062217;28;20031;-67
2022/06/03 08:35:59;;;;;;;2.25;0.80;;;;;;;;;;5069159;28;20059;-67
2022/06/03 08:38:27;;;;;;;2.03;0.70;;;;;;;;;;5067311;28;20905;-67
2022/06/03 08:40:58;;;;;;;1.10;0.90;;;;;;;;;;5067370;28;20098;-67
2022/06/03 08:43:29;;;;;;;2.95;0.90;;;;;;;;;;5065649;28;20024;-67
2022/06/03 08:45:55;;;;;;;1.98;0.80;;;;;;;;;;5059914;28;20388;-67
2022/06/03 08:48:21;;;;;;;1.63;0.90;;;;;;;;;;5064731;28;20028;-68
2022/06/03 08:50:47;;;;;;;5.70;0.85;;;;;;;;;;5068229;28;20541;-67
2022/06/03 08:53:12;;;;;;;1.27;0.75;;;;;;;;;;5065516;28;20036;-68
2022/06/03 08:55:40;;;;;;;2.42;1.40;;;;;;;;;;5066180;28;20392;-68
2022/06/03 08:58:16;;;;;;;4.93;1.10;;;;;;;;;;5067177;28;20059;-68
2022/06/03 09:00:50;;;;;;;3.05;0.85;;;;;;;;;;5066725;28;20017;-67
2022/06/03 09:03:18;;;;;;;2.78;0.80;;;;;;;;;;5066676;28;20049;-67
2022/06/03 09:05:46;;;;;;;2.50;0.93;;;;;;;;;;5067474;28;20127;-67
2022/06/03 09:08:26;;;;;;;2.10;1.02;;;;;;;;;;5068609;28;20056;-67
2022/06/03 09:10:51;;;;;;;4.75;1.05;;;;;;;;;;5062650;28;20396;-67
2022/06/03 09:13:16;;;;;;;11.90;5.38;;;;;;;;;;5069698;28;20120;-67
2022/06/03 09:15:45;;;;;;;3.23;1.00;;;;;;;;;;5064717;28;20767;-68
2022/06/03 09:18:19;;;;;;;3.20;1.00;;;;;;;;;;5068203;28;20287;-67
2022/06/03 09:20:52;;;;;;;2.38;1.00;;;;;;;;;;5069876;28;20016;-67
2022/06/03 09:23:19;;;;;;;3.72;0.98;;;;;;;;;;5069926;28;20016;-67
2022/06/03 09:25:49;;;;;;;4.28;0.85;;;;;;;;;;5069957;28;20077;-67
2022/06/03 09:28:15;;;;;;;1.17;0.65;;;;;;;;;;5069730;28;20385;-68
2022/06/03 09:30:41;;;;;;;2.50;0.82;;;;;;;;;;5069030;28;20492;-68
2022/06/03 09:33:07;;;;;;;1.25;0.70;;;;;;;;;;5064113;28;20104;-68
2022/06/03 09:35:34;;;;;;;1.70;0.63;;;;;;;;;;5070083;28;20013;-67
2022/06/03 09:38:01;;;;;;;5.40;0.80;;;;;;;;;;5067807;28;20031;-67
2022/06/03 09:40:31;;;;;;;2.50;0.90;;;;;;;;;;5069244;28;20602;-67
2022/06/03 09:42:56;;;;;;;;;;;;;;;;;;5066599;28;20026;-68
2022/06/03 09:45:23;;;;;;;3.67;0.90;;;;;;;;;;5067279;28;19912;-68
2022/06/03 09:47:49;;;;;;;4.25;1.30;;;;;;;;;;5065285;28;20016;-67
2022/06/03 09:50:15;;;;;;;2.63;0.93;;;;;;;;;;5064604;28;20031;-68
2022/06/03 09:52:41;;;;;;;3.10;0.90;;;;;;;;;;5064813;28;20337;-68
2022/06/03 09:55:17;;;;;;;1.85;0.82;;;;;;;;;;5064674;28;20024;-67
2022/06/03 09:57:44;;;;;;;4.38;1.00;;;;;;;;;;5069575;28;20024;-68
2022/06/03 10:00:17;;;;;;;2.15;0.80;;;;;;;;;;5069740;28;20024;-67
2022/06/03 10:02:43;;;;;;;1.63;0.80;;;;;;;;;;5068584;28;20067;-69
2022/06/03 10:05:08;;;;;;;10.48;1.30;;;;;;;;;;5067889;28;20024;-69
2022/06/03 10:07:34;;;;;;;1.77;0.57;;;;;;;;;;5067302;28;20400;-68
2022/06/03 10:12:52;;;;;;;5.38;1.15;;;;;;;;;;5062150;28;20031;-68
2022/06/03 10:15:38;;;;;;;2.25;0.90;;;;;;;;;;5069273;28;20048;-68
2022/06/03 10:18:22;;;;;;;3.22;0.70;;;;;;;;;;5067260;28;20454;-68
2022/06/03 10:20:48;;;;;;;10.00;1.20;;;;;;;;;;5066458;28;20025;-69
2022/06/03 10:23:13;;;;;;;2.92;1.08;;;;;;;;;;5065550;28;20421;-68
2022/06/03 10:25:41;;;;;;;1.42;0.85;;;;;;;;;;5064127;28;20119;-68
2022/06/03 10:28:08;;;;;;;3.88;0.80;;;;;;;;;;5067486;28;20024;-67
2022/06/03 10:30:34;;;;;;;1.15;0.68;;;;;;;;;;5067904;28;20016;-68
2022/06/03 10:33:00;;;;;;;2.65;0.93;;;;;;;;;;5069032;28;20022;-68
2022/06/03 10:35:31;;;;;;;5.15;0.80;;;;;;;;;;5067804;28;20023;-67
2022/06/03 10:37:58;;;;;;;3.88;0.85;;;;;;;;;;5065212;28;20066;-68
2022/06/03 10:40:26;;;;;;;4.07;0.70;;;;;;;;;;5071654;28;20050;-68
2022/06/03 10:42:54;;;;;;;1.70;0.90;;;;;;;;;;5070274;28;20020;-68
2022/06/03 10:45:24;;;;;;;4.43;1.50;;;;;;;;;;5071781;28;20273;-68
2022/06/03 10:47:50;;;;;;;;;;;;;;;;;;5070757;28;20433;-68
2022/06/03 10:50:27;;;;;;;3.03;1.00;;;;;;;;;;5071809;28;19923;-67
2022/06/03 11:01:06;;;;;;;1.67;0.90;;;;;;;;;;5032383;28;20059;-67
2022/06/03 11:01:51;;;;;;;8.40;1.38;;;;;;;;;;5068760;28;20500;-68
2022/06/03 11:04:23;;;;;;;1.92;1.35;;;;;;;;;;5070709;28;20427;-68
2022/06/03 11:06:48;;;;;;;3.28;0.95;;;;;;;;;;5069963;28;20027;-67
2022/06/03 11:09:15;;;;;;;11.93;1.57;;;;;;;;;;5069429;28;20024;-67
2022/06/03 11:11:42;;;;;;;3.60;0.95;;;;;;;;;;5068969;28;20013;-67
2022/06/03 11:14:22;;;;;;;1.67;0.80;;;;;;;;;;5068674;28;20020;-68
2022/06/03 11:16:56;;;;;;;4.93;0.85;;;;;;;;;;5068281;28;20031;-68
2022/06/03 11:19:21;;;;;;;7.13;1.08;;;;;;;;;;5069903;28;20024;-68
2022/06/03 11:21:46;;;;;;;1.88;1.00;;;;;;;;;;5067883;28;21098;-67
2022/06/03 11:24:12;;;;;;;10.35;1.42;;;;;;;;;;5069002;28;20123;-68
2022/06/03 11:26:41;;;;;;;2.25;0.90;;;;;;;;;;5068508;28;20047;-67
2022/06/03 11:29:10;;;;;;;4.68;1.00;;;;;;;;;;5072696;28;20546;-68
2022/06/03 11:31:38;;;;;;;1.40;0.90;;;;;;;;;;5068140;28;20036;-68
2022/06/03 11:34:03;;;;;;;2.92;0.80;;;;;;;;;;5069660;28;20741;-68
2022/06/03 11:36:35;;;;;;;6.23;1.13;;;;;;;;;;5072422;28;20032;-68
2022/06/03 11:39:03;;;;;;;3.72;0.85;;;;;;;;;;5067388;28;20313;-68
2022/06/03 11:41:32;;;;;;;2.40;0.85;;;;;;;;;;5070828;28;20107;-68
2022/06/03 11:44:04;;;;;;;1.58;0.90;;;;;;;;;;5069661;28;20468;-68
2022/06/03 11:46:36;;;;;;;1.63;1.10;;;;;;;;;;5060157;28;20066;-67
2022/06/03 11:49:01;;;;;;;3.17;1.10;;;;;;;;;;5068006;28;20089;-67
2022/06/03 11:51:26;;;;;;;1.80;1.13;;;;;;;;;;5070174;28;20468;-68
2022/06/03 11:53:52;;;;;;;2.20;1.20;;;;;;;;;;5066646;28;20070;-68
2022/06/03 11:56:19;;;;;;;1.70;1.02;;;;;;;;;;5067737;28;20032;-68
2022/06/03 11:58:50;;;;;;;3.40;1.83;;;;;;;;;;5067872;28;20385;-68
2022/06/03 12:01:29;;;;;;;7.78;1.52;;;;;;;;;;5063745;28;20021;-68
2022/06/03 12:04:07;;;;;;;3.75;1.40;;;;;;;;;;5067087;28;20696;-68
2022/06/03 12:06:44;;;;;;;3.35;0.90;;;;;;;;;;5062326;28;20476;-68
2022/06/03 12:09:12;;;;;;;3.28;1.00;;;;;;;;;;5069000;28;20040;-68
2022/06/03 12:14:33;;;;;;;1.40;0.93;;;;;;;;;;5068248;28;20083;-68
2022/06/03 12:17:10;;;;;;;5.80;1.30;;;;;;;;;;5070645;28;20107;-68
2022/06/03 12:19:37;;;;;;;8.50;1.27;;;;;;;;;;5067096;28;20043;-68
2022/06/03 12:22:18;;;;;;;3.00;1.10;;;;;;;;;;5068781;28;20024;-69
2022/06/03 12:24:44;;;;;;;7.65;1.08;;;;;;;;;;5069126;28;20103;-68
2022/06/03 12:27:13;;;;;;;6.22;1.20;;;;;;;;;;5071325;28;20016;-67
2022/06/03 12:29:41;;;;;;;2.45;1.00;;;;;;;;;;5092204;23;20438;-70
2022/06/03 12:32:15;;;;;;;2.35;1.42;;;;;;;;;;5081726;28;20028;-71
2022/06/03 12:34:40;;;;;;;4.07;1.45;;;;;;;;;;5086675;28;20055;-70
2022/06/03 12:37:26;;;;;;;3.97;1.20;;;;;;;;;;5082918;28;20096;-70
2022/06/03 12:39:56;;;;;;;4.72;1.42;;;;;;;;;;5083092;28;20769;-70
2022/06/03 12:42:24;;;;;;;2.70;1.10;;;;;;;;;;5067653;28;20654;-70
2022/06/03 12:44:51;;;;;;;2.45;1.60;;;;;;;;;;5065402;28;20020;-70
2022/06/03 12:47:26;;;;;;;2.00;1.10;;;;;;;;;;5072317;28;20096;-70
2022/06/03 12:50:09;;;;;;;4.05;1.27;;;;;;;;;;5076048;28;20095;-71
2022/06/03 12:52:36;;;;;;;1.45;1.10;;;;;;;;;;5065182;28;20048;-71
2022/06/03 12:55:07;;;;;;;3.50;1.30;;;;;;;;;;5068538;28;20027;-70
2022/06/03 12:57:33;;;;;;;3.50;1.10;;;;;;;;;;5061193;28;20012;-71
2022/06/03 13:00:12;;;;;;;3.75;1.00;;;;;;;;;;5079194;28;20039;-70
2022/06/03 13:02:47;;;;;;;3.45;1.00;;;;;;;;;;5060126;28;20024;-70
2022/06/03 13:05:35;;;;;;;2.63;1.15;;;;;;;;;;5069838;28;20028;-70
2022/06/03 13:08:02;;;;;;;4.03;1.60;;;;;;;;;;5070966;28;20547;-71
2022/06/03 13:10:29;;;;;;;2.42;1.10;;;;;;;;;;5063883;28;20025;-70
2022/06/03 13:12:58;;;;;;;8.57;1.50;;;;;;;;;;5060001;28;20035;-70
2022/06/03 13:15:23;;;;;;;2.35;1.02;;;;;;;;;;5057280;28;20012;-71
2022/06/03 13:18:07;;;;;;;2.30;1.10;;;;;;;;;;5068638;28;20021;-70
2022/06/03 13:20:49;;;;;;;4.45;1.38;;;;;;;;;;5066344;28;20096;-70
2022/06/03 13:23:29;;;;;;;4.80;2.35;;;;;;;;;;5061039;28;20025;-70
2022/06/03 13:26:15;;;;;;;5.68;1.48;;;;;;;;;;5066904;28;20019;-70
2022/06/03 13:28:43;;;;;;;4.25;1.63;;;;;;;;;;5062739;28;20469;-70
2022/06/03 13:31:19;;;;;;;3.05;1.73;;;;;;;;;;5064519;28;20074;-70
2022/06/03 13:34:02;;;;;;;7.45;2.67;;;;;;;;;;5059895;28;20017;-70
2022/06/03 13:36:30;;;;;;;8.18;1.98;;;;;;;;;;5059535;28;20056;-71
2022/06/03 13:38:56;;;;;;;7.70;1.80;;;;;;;;;;5076357;28;20688;-70
2022/06/03 13:44:06;;;;;;;2.90;1.50;;;;;;;;;;5064487;28;20116;-69
2022/06/03 13:46:32;;;;;;;2.85;1.88;;;;;;;;;;5073361;28;20039;-71
2022/06/03 13:48:59;;;;;;;3.13;1.52;;;;;;;;;;5061999;28;20454;-70
2022/06/03 13:51:29;;;;;;;4.82;1.63;;;;;;;;;;5064548;28;20027;-70
2022/06/03 13:53:57;;;;;;;3.45;1.40;;;;;;;;;;5062923;28;20051;-71
2022/06/03 13:56:24;;;;;;;2.58;1.65;;;;;;;;;;5071297;28;20430;-70
2022/06/03 13:58:49;;;;;;;1.55;1.30;;;;;;;;;;5067947;28;20115;-70
2022/06/03 14:01:17;;;;;;;2.22;1.40;;;;;;;;;;5076629;28;20111;-71
2022/06/03 14:03:49;;;;;;;1.25;1.00;;;;;;;;;;5063339;28;20032;-70
2022/06/03 14:06:18;;;;;;;5.97;1.35;;;;;;;;;;5081449;28;20012;-70
2022/06/03 14:08:46;;;;;;;10.27;1.38;;;;;;;;;;5066843;28;20047;-70
2022/06/03 14:11:16;;;;;;;4.43;1.73;;;;;;;;;;5067444;28;20027;-70
2022/06/03 14:13:53;;;;;;;13.50;1.63;;;;;;;;;;5061590;28;20013;-70
2022/06/03 14:16:33;;;;;;;2.78;0.98;;;;;;;;;;5065005;28;20540;-70
2022/06/03 14:19:08;;;;;;;3.90;1.10;;;;;;;;;;5058339;28;20085;-70
2022/06/03 14:21:42;;;;;;;6.38;1.55;;;;;;;;;;5071237;28;20028;-70
2022/06/03 14:24:12;;;;;;;5.50;1.55;;;;;;;;;;5058020;28;20016;-70
2022/06/03 14:26:43;;;;;;;5.30;1.20;;;;;;;;;;5072183;28;20089;-72
2022/06/03 14:29:14;;;;;;;7.25;1.42;;;;;;;;;;5062168;28;20024;-69
2022/06/03 14:31:41;;;;;;;2.05;1.08;;;;;;;;;;5058588;28;20047;-70
2022/06/03 14:34:13;;;;;;;9.73;1.98;;;;;;;;;;5066736;28;20031;-70
2022/06/03 14:36:38;;;;;;;3.05;1.40;;;;;;;;;;5061096;28;20481;-70
2022/06/03 14:39:18;;;;;;;3.60;1.35;;;;;;;;;;5063073;28;20054;-70
2022/06/03 14:41:44;;;;;;;9.17;1.30;;;;;;;;;;5042026;28;20032;-70
2022/06/03 14:44:15;;;;;;;3.38;1.10;;;;;;;;;;5064939;28;20028;-70
2022/06/03 14:46:48;;;;;;;3.53;0.98;;;;;;;;;;5068442;28;20024;-71
2022/06/03 14:49:16;;;;;;;3.42;1.20;;;;;;;;;;5079807;28;20016;-70
2022/06/03 14:52:08;;;;;;;4.43;1.60;;;;;;;;;;5078798;28;20107;-70
2022/06/03 14:54:34;;;;;;;3.53;2.13;;;;;;;;;;5031788;28;20033;-70
2022/06/03 14:57:02;;;;;;;4.10;1.70;;;;;;;;;;5070022;28;20076;-70
2022/06/03 14:59:30;;;;;;;5.47;1.33;;;;;;;;;;5073066;28;20097;-70
2022/06/03 15:02:03;;;;;;;7.32;1.42;;;;;;;;;;5073116;28;20039;-70
2022/06/03 15:04:28;;;;;;;4.57;1.75;;;;;;;;;;5064182;28;20028;-70
2022/06/03 15:07:01;;;;;;;3.40;1.50;;;;;;;;;;5067161;28;20012;-70
2022/06/03 15:09:33;;;;;;;4.68;1.20;;;;;;;;;;5066244;28;20419;-70
2022/06/03 15:11:59;;;;;;;3.47;1.52;;;;;;;;;;5078910;28;20020;-70
2022/06/03 15:14:25;;;;;;;5.45;1.48;;;;;;;;;;5065386;28;20028;-70
2022/06/03 15:16:59;;;;;;;7.57;1.35;;;;;;;;;;5077883;28;20376;-70
2022/06/03 15:19:33;;;;;;;5.78;1.40;;;;;;;;;;5072994;28;20019;-70
2022/06/03 15:21:59;;;;;;;6.70;1.77;;;;;;;;;;5089617;28;20380;-71
2022/06/03 15:24:25;;;;;;;3.35;1.40;;;;;;;;;;5064836;28;20036;-70
2022/06/03 15:26:50;;;;;;;4.57;1.35;;;;;;;;;;5084989;28;20448;-70
2022/06/03 15:29:19;;;;;;;1.80;1.05;;;;;;;;;;5067126;28;20025;-70
2022/06/03 15:31:46;;;;;;;6.75;1.25;;;;;;;;;;5072935;28;20047;-70
2022/06/03 15:34:12;;;;;;;5.78;1.40;;;;;;;;;;5076770;28;20027;-70
2022/06/03 15:36:40;;;;;;;3.70;1.30;;;;;;;;;;5076711;28;20365;-70
2022/06/03 15:39:25;;;;;;;1.58;1.30;;;;;;;;;;5073917;28;20052;-70